Time;durP1;ratioP1;P1;durP2;ratioP2;P2;SDS_P1;SDS_P2;PMS_P1;PMS_P2;Temp;Humidity;BMP_temperature;BMP_pressure;BME280_temperature;BME280_humidity;BME280_pressure;Samples;Min_cycle;Max_cycle;Signal;HPM_P1;HPM_P2
2021/07/27 00:00:50;;;;;;;;;;;;;;;26.19;45.09;100960.67;1722162;81;21074;-57
2021/07/27 00:03:17;;;;;;;;;;;;;;;26.20;45.11;100965.70;1713065;81;20423;-56
2021/07/27 00:05:43;;;;;;;;;;;;;;;26.20;45.14;100960.94;1721433;81;20200;-56
2021/07/27 00:08:09;;;;;;;;;;;;;;;26.22;45.20;100960.59;1711386;81;20756;-56
2021/07/27 00:10:35;;;;;;;;;;;;;;;26.21;45.23;100962.58;1706404;81;20735;-56
2021/07/27 00:13:02;;;;;;;;;;;;;;;26.22;45.26;100956.42;1707129;81;20915;-56
2021/07/27 00:15:28;;;;;;;;;;;;;;;26.22;45.31;100962.81;1729849;81;20269;-56
2021/07/27 00:17:54;;;;;;;;;;;;;;;26.24;45.32;100962.44;1725085;81;20251;-56
2021/07/27 00:20:22;;;;;;;;;;;;;;;26.24;45.37;100959.65;1733551;81;20611;-56
2021/07/27 00:22:48;;;;;;;;;;;;;;;26.24;45.40;100966.05;1714163;81;20381;-56
2021/07/27 00:25:15;;;;;;;;;;;;;;;26.25;45.44;100963.49;1757787;80;21195;-56
2021/07/27 00:27:41;;;;;;;;;;;;;;;26.25;45.46;100962.09;1721731;81;20193;-54
2021/07/27 00:30:09;;;;;;;;;;;;;;;26.26;45.50;100958.16;1756060;80;20090;-55
2021/07/27 00:32:43;;;;;;;;;;;;;;;26.26;45.53;100957.34;1725700;81;20345;-56
2021/07/27 00:35:11;;;;;;;;;;;;;;;26.26;45.57;100953.97;1735793;81;20147;-56
2021/07/27 00:37:41;;;;;;;;;;;;;;;26.28;45.61;100957.78;1737214;81;21019;-56
2021/07/27 00:40:06;;;;;;;;;;;;;;;26.28;45.62;100960.56;1733226;81;20197;-57
2021/07/27 00:42:32;;;;;;;;;;;;;;;26.28;45.67;100950.80;1763688;80;20421;-57
2021/07/27 00:44:58;;;;;;;;;;;;;;;26.28;45.70;100951.63;1713476;82;20170;-57
2021/07/27 00:47:24;;;;;;;;;;;;;;;26.28;45.73;100961.38;1761236;79;20242;-56
2021/07/27 00:49:51;;;;;;;;;;;;;;;26.29;45.76;100964.41;1750044;80;21051;-57
2021/07/27 00:52:17;;;;;;;;;;;;;;;26.31;45.80;100961.25;1726623;81;20189;-57
2021/07/27 00:54:42;;;;;;;;;;;;;;;26.29;45.81;100961.63;1763086;79;20176;-57
2021/07/27 00:57:08;;;;;;;;;;;;;;;26.30;45.85;100971.63;1749131;80;20173;-57
2021/07/27 00:59:34;;;;;;;;;;;;;;;26.30;45.87;100974.41;1750659;80;20449;-57
2021/07/27 01:02:00;;;;;;;;;;;;;;;26.32;45.89;100972.64;1739962;81;21308;-56
2021/07/27 01:04:26;;;;;;;;;;;;;;;26.31;45.93;100963.45;1738102;81;20200;-57
2021/07/27 01:06:51;;;;;;;;;;;;;;;26.31;45.98;100957.88;1725536;81;20267;-57
2021/07/27 01:09:17;;;;;;;;;;;;;;;26.32;45.99;100949.75;1717192;81;20194;-57
2021/07/27 01:11:43;;;;;;;;;;;;;;;26.32;46.02;100951.72;1715381;81;20820;-57
2021/07/27 01:14:09;;;;;;;;;;;;;;;26.32;46.05;100958.12;1721058;81;21103;-57
2021/07/27 01:16:36;;;;;;;;;;;;;;;26.33;46.05;100963.94;1719543;81;20274;-57
2021/07/27 01:43:08;;;;;;;;;;;;;;;26.35;46.31;100939.27;1670392;81;20142;-57
2021/07/27 01:45:34;;;;;;;;;;;;;;;26.34;46.35;100939.06;1732508;81;20195;-57
2021/07/27 01:48:00;;;;;;;;;;;;;;;26.35;46.38;100939.27;1736910;81;20667;-57
2021/07/27 01:50:27;;;;;;;;;;;;;;;26.35;46.42;100935.70;1734953;81;20147;-57
2021/07/27 01:52:58;;;;;;;;;;;;;;;26.36;46.44;100945.66;1734799;81;21018;-58
2021/07/27 01:55:22;;;;;;;;;;;;;;;26.35;46.49;100950.42;1732898;81;20221;-57
2021/07/27 01:57:49;;;;;;;;;;;;;;;26.38;46.52;100950.91;1727452;81;20648;-55
2021/07/27 02:00:15;;;;;;;;;;;;;;;26.38;46.53;100952.30;1736502;81;20363;-56
2021/07/27 02:02:41;;;;;;;;;;;;;;;26.39;46.56;100953.92;1720624;80;20617;-56
2021/07/27 02:05:08;;;;;;;;;;;;;;;26.38;46.59;100953.69;1736696;81;21158;-57
2021/07/27 02:07:37;;;;;;;;;;;;;;;26.39;46.59;100955.32;1727220;81;20232;-56
2021/07/27 02:10:08;;;;;;;;;;;;;;;26.38;46.62;100959.27;1732893;81;20248;-56
2021/07/27 02:12:38;;;;;;;;;;;;;;;26.39;46.66;100959.50;1732799;81;20165;-57
2021/07/27 02:15:07;;;;;;;;;;;;;;;26.39;46.69;100963.69;1730704;81;20198;-57
2021/07/27 02:17:33;;;;;;;;;;;;;;;26.39;46.71;100961.72;1727751;81;21145;-56
2021/07/27 02:20:00;;;;;;;;;;;;;;;26.41;46.72;100962.73;1722632;81;21715;-56
2021/07/27 02:22:26;;;;;;;;;;;;;;;26.39;46.75;100949.16;1742951;81;20284;-56
2021/07/27 02:24:52;;;;;;;;;;;;;;;26.40;46.78;100958.31;1737807;80;20143;-56
2021/07/27 02:27:18;;;;;;;;;;;;;;;26.42;46.82;100957.40;1741903;80;20952;-56
2021/07/27 02:29:47;;;;;;;;;;;;;;;26.41;46.86;100952.97;1746984;80;21175;-56
2021/07/27 02:32:13;;;;;;;;;;;;;;;26.43;46.88;100949.27;1758049;80;20225;-56
2021/07/27 02:34:38;;;;;;;;;;;;;;;26.41;46.92;100942.63;1754455;80;20794;-56
2021/07/27 02:37:04;;;;;;;;;;;;;;;26.42;46.94;100941.47;1755137;80;20758;-56
2021/07/27 02:39:33;;;;;;;;;;;;;;;26.42;46.96;100940.08;1763988;80;20165;-55
2021/07/27 02:41:59;;;;;;;;;;;;;;;26.42;46.97;100934.50;1768270;80;22265;-56
2021/07/27 02:44:25;;;;;;;;;;;;;;;26.43;47.01;100939.50;1767817;79;20167;-56
2021/07/27 02:46:51;;;;;;;;;;;;;;;26.42;47.04;100942.87;1727729;80;20248;-57
2021/07/27 02:49:17;;;;;;;;;;;;;;;26.43;47.07;100945.08;1772751;79;20208;-56
2021/07/27 02:51:50;;;;;;;;;;;;;;;26.42;47.11;100942.05;1764188;79;20164;-55
2021/07/27 02:54:16;;;;;;;;;;;;;;;26.42;47.14;100939.27;1747691;80;21226;-56
2021/07/27 02:56:42;;;;;;;;;;;;;;;26.42;47.15;100945.66;1750201;80;20190;-56
2021/07/27 02:59:08;;;;;;;;;;;;;;;26.43;47.16;100942.29;1745418;80;20168;-57
2021/07/27 03:01:34;;;;;;;;;;;;;;;26.43;47.18;100947.87;1757461;79;20181;-56
2021/07/27 03:04:00;;;;;;;;;;;;;;;26.43;47.21;100944.50;1769430;79;20127;-56
2021/07/27 03:06:28;;;;;;;;;;;;;;;26.43;47.22;100951.47;1767983;79;21652;-56
2021/07/27 03:11:23;;;;;;;;;;;;;;;26.43;47.29;100937.52;1722859;81;20176;-56
2021/07/27 03:13:49;;;;;;;;;;;;;;;26.43;47.30;100939.50;1722708;81;20479;-56
2021/07/27 03:16:22;;;;;;;;;;;;;;;26.43;47.33;100941.71;1725144;81;20171;-56
2021/07/27 03:18:49;;;;;;;;;;;;;;;26.44;47.39;100948.11;1747469;81;21069;-56
2021/07/27 03:21:19;;;;;;;;;;;;;;;26.44;47.40;100950.89;1736298;81;20135;-56
2021/07/27 03:23:45;;;;;;;;;;;;;;;26.44;47.43;100952.29;1763080;80;20138;-57
2021/07/27 03:26:11;;;;;;;;;;;;;;;26.43;47.46;100952.88;1719560;81;20627;-56
2021/07/27 03:28:39;;;;;;;;;;;;;;;26.43;47.48;100966.81;1702063;82;20204;-55
2021/07/27 03:31:05;;;;;;;;;;;;;;;26.44;47.50;100964.84;1705413;82;21150;-55
2021/07/27 03:33:31;;;;;;;;;;;;;;;26.44;47.53;100965.63;1705606;82;20504;-55
2021/07/27 03:35:57;;;;;;;;;;;;;;;26.44;47.58;100964.84;1713988;82;20230;-55
2021/07/27 03:38:23;;;;;;;;;;;;;;;26.44;47.60;100966.23;1714989;82;20486;-55
2021/07/27 03:40:49;;;;;;;;;;;;;;;26.44;47.62;100960.66;1710789;82;20221;-55
2021/07/27 03:43:15;;;;;;;;;;;;;;;26.44;47.67;100956.47;1726940;81;20973;-55
2021/07/27 03:45:40;;;;;;;;;;;;;;;26.44;47.66;100948.11;1700165;83;20429;-55
2021/07/27 03:48:06;;;;;;;;;;;;;;;26.44;47.71;100952.29;1722235;83;20194;-55
2021/07/27 03:50:32;;;;;;;;;;;;;;;26.44;47.71;100957.26;1712569;83;20720;-55
2021/07/27 03:52:58;;;;;;;;;;;;;;;26.45;47.73;100960.86;1719110;83;20187;-55
2021/07/27 03:55:24;;;;;;;;;;;;;;;26.44;47.75;100953.69;1725549;81;21163;-55
2021/07/27 03:57:54;;;;;;;;;;;;;;;26.45;47.79;100958.89;1720133;81;20187;-55
2021/07/27 04:00:23;;;;;;;;;;;;;;;26.45;47.80;100963.66;1723472;81;20321;-55
2021/07/27 04:02:49;;;;;;;;;;;;;;;26.45;47.81;100958.08;1713350;83;20480;-55
2021/07/27 04:05:15;;;;;;;;;;;;;;;26.45;47.81;100951.91;1699741;83;20597;-55
2021/07/27 04:07:41;;;;;;;;;;;;;;;26.45;47.83;100946.34;1700140;82;21106;-55
2021/07/27 04:10:08;;;;;;;;;;;;;;;26.46;47.86;100947.97;1703585;82;20296;-55
2021/07/27 04:12:35;;;;;;;;;;;;;;;26.45;47.90;100947.73;1712923;82;21442;-55
2021/07/27 04:15:01;;;;;;;;;;;;;;;26.45;47.90;100953.89;1715154;82;20546;-55
2021/07/27 04:17:27;;;;;;;;;;;;;;;26.45;47.92;100953.31;1712813;82;20174;-55
2021/07/27 04:19:53;;;;;;;;;;;;;;;26.46;47.95;100952.16;1707730;82;21131;-55
2021/07/27 04:22:19;;;;;;;;;;;;;;;26.45;47.96;100947.73;1702479;82;20202;-55
2021/07/27 04:24:45;;;;;;;;;;;;;;;26.47;47.97;100944.59;1716957;81;20187;-55
2021/07/27 04:27:11;;;;;;;;;;;;;;;26.47;47.99;100947.39;1745905;81;20718;-55
2021/07/27 04:29:37;;;;;;;;;;;;;;;26.47;48.00;100939.02;1746736;81;20574;-55
2021/07/27 04:32:04;;;;;;;;;;;;;;;26.46;48.02;100935.41;1737492;81;20918;-55
2021/07/27 04:34:29;;;;;;;;;;;;;;;26.47;48.03;100933.44;1738498;81;20223;-55
2021/07/27 04:36:55;;;;;;;;;;;;;;;26.42;47.96;100921.13;1742485;81;20269;-55
2021/07/27 04:39:21;;;;;;;;;;;;;;;26.40;47.87;100932.63;1738348;81;20174;-55
2021/07/27 04:41:47;;;;;;;;;;;;;;;26.36;47.80;100942.88;1746559;81;20216;-54
2021/07/27 04:44:13;;;;;;;;;;;;;;;26.29;47.74;100947.67;1742279;81;21012;-56
2021/07/27 04:46:39;;;;;;;;;;;;;;;26.25;47.70;100952.33;1737405;81;20186;-51
2021/07/27 04:49:05;;;;;;;;;;;;;;;26.22;47.66;100949.44;1736449;81;20217;-54
2021/07/27 04:51:31;;;;;;;;;;;;;;;26.19;47.56;100953.70;1741213;81;20202;-53
2021/07/27 04:54:04;;;;;;;;;;;;;;;26.16;47.46;100958.59;1741340;81;20156;-54
2021/07/27 04:56:30;;;;;;;;;;;;;;;26.12;47.38;100955.47;1739831;81;21201;-55
2021/07/27 04:58:56;;;;;;;;;;;;;;;26.09;47.29;100954.20;1739016;81;20249;-56
2021/07/27 05:01:22;;;;;;;;;;;;;;;26.05;47.17;100949.68;1740450;81;20433;-55
2021/07/27 05:03:48;;;;;;;;;;;;;;;26.02;47.06;100953.15;1742401;81;20428;-55
2021/07/27 05:06:16;;;;;;;;;;;;;;;25.98;46.96;100957.80;1741278;81;20179;-55
2021/07/27 05:08:42;;;;;;;;;;;;;;;25.95;46.83;100964.09;1737429;81;22570;-55
2021/07/27 05:11:08;;;;;;;;;;;;;;;25.92;46.74;100964.22;1739007;81;20272;-55
2021/07/27 05:13:37;;;;;;;;;;;;;;;25.89;46.64;100952.35;1737054;81;20214;-55
2021/07/27 05:16:12;;;;;;;;;;;;;;;25.87;46.52;100955.52;1741211;81;20184;-55
2021/07/27 05:18:38;;;;;;;;;;;;;;;25.85;46.42;100969.55;1738951;81;20148;-56
2021/07/27 05:21:04;;;;;;;;;;;;;;;25.82;46.29;100973.86;1740646;81;21592;-57
2021/07/27 05:23:30;;;;;;;;;;;;;;;25.80;46.19;100973.38;1738936;81;20803;-57
2021/07/27 05:25:55;;;;;;;;;;;;;;;25.78;46.10;100970.14;1740230;81;20246;-57
2021/07/27 05:28:21;;;;;;;;;;;;;;;25.76;45.99;100958.52;1745104;81;20202;-57
2021/07/27 05:30:47;;;;;;;;;;;;;;;25.75;45.87;100957.49;1740361;80;20201;-56
2021/07/27 05:33:13;;;;;;;;;;;;;;;25.73;45.78;100957.02;1738654;81;21012;-56
2021/07/27 05:35:39;;;;;;;;;;;;;;;25.71;45.68;100951.00;1736960;81;20275;-56
2021/07/27 05:38:05;;;;;;;;;;;;;;;25.70;45.56;100949.36;1746390;81;20177;-55
2021/07/27 05:40:31;;;;;;;;;;;;;;;25.68;45.43;100950.28;1743551;81;20232;-55
2021/07/27 05:43:00;;;;;;;;;;;;;;;25.65;45.37;100958.77;1747264;81;20187;-55
2021/07/27 05:45:26;;;;;;;;;;;;;;;25.66;45.34;100949.83;1745687;81;21898;-55
2021/07/27 05:47:53;;;;;;;;;;;;;;;25.65;45.36;100944.02;1738736;81;20213;-55
2021/07/27 05:50:20;;;;;;;;;;;;;;;25.63;45.32;100947.14;1741102;81;20148;-55
2021/07/27 05:52:46;;;;;;;;;;;;;;;25.63;45.29;100947.14;1740307;81;20388;-55
2021/07/27 05:55:13;;;;;;;;;;;;;;;25.61;45.26;100942.52;1745570;81;20738;-54
2021/07/27 05:57:39;;;;;;;;;;;;;;;25.61;45.26;100949.48;1741300;81;21165;-53
2021/07/27 06:00:05;;;;;;;;;;;;;;;25.61;45.23;100950.05;1745139;81;20760;-55
2021/07/27 06:02:31;;;;;;;;;;;;;;;25.60;45.18;100947.03;1742467;81;20164;-55
2021/07/27 06:04:57;;;;;;;;;;;;;;;25.60;45.12;100947.03;1736145;81;20138;-54
2021/07/27 06:07:23;;;;;;;;;;;;;;;25.58;45.06;100948.79;1743506;81;20251;-54
2021/07/27 06:09:49;;;;;;;;;;;;;;;25.57;45.00;100940.77;1739042;80;20969;-55
2021/07/27 06:12:16;;;;;;;;;;;;;;;25.56;44.93;100940.53;1751660;80;20173;-55
2021/07/27 06:14:42;;;;;;;;;;;;;;;25.55;44.87;100940.28;1763298;80;20181;-55
2021/07/27 06:17:12;;;;;;;;;;;;;;;25.54;44.80;100942.29;1752734;80;20153;-54
2021/07/27 06:19:38;;;;;;;;;;;;;;;25.53;44.74;100947.62;1736786;81;20129;-55
2021/07/27 06:22:04;;;;;;;;;;;;;;;25.53;44.64;100957.92;1720422;81;21230;-54
2021/07/27 06:24:30;;;;;;;;;;;;;;;25.51;44.58;100955.47;1746479;81;20211;-54
2021/07/27 06:26:56;;;;;;;;;;;;;;;25.49;44.50;100953.62;1716766;82;20423;-54
2021/07/27 06:29:22;;;;;;;;;;;;;;;25.49;44.43;100959.20;1719341;82;20241;-54
2021/07/27 06:31:48;;;;;;;;;;;;;;;25.48;44.36;100955.59;1713810;82;20115;-55
2021/07/27 06:34:14;;;;;;;;;;;;;;;25.46;44.29;100955.11;1716805;82;20869;-55
2021/07/27 06:36:40;;;;;;;;;;;;;;;25.45;44.20;100949.33;1718406;82;20375;-54
2021/07/27 06:39:06;;;;;;;;;;;;;;;25.45;44.13;100954.91;1708965;82;20178;-55
2021/07/27 06:41:32;;;;;;;;;;;;;;;25.45;44.09;100951.30;1714119;82;20630;-55
2021/07/27 06:43:58;;;;;;;;;;;;;;;25.46;44.07;100957.11;1712689;82;20170;-55
2021/07/27 06:46:23;;;;;;;;;;;;;;;25.50;44.06;100955.84;1718453;82;21287;-55
2021/07/27 06:48:49;;;;;;;;;;;;;;;25.53;44.05;100954.59;1708984;82;20245;-55
2021/07/27 06:51:18;;;;;;;;;;;;;;;25.56;44.04;100953.06;1710066;82;20181;-55
2021/07/27 06:53:44;;;;;;;;;;;;;;;25.59;44.05;100956.57;1714980;82;20800;-55
2021/07/27 06:56:11;;;;;;;;;;;;;;;25.62;44.06;100952.50;1713152;82;20262;-55
2021/07/27 06:58:37;;;;;;;;;;;;;;;25.65;44.05;100949.59;1704128;82;21221;-55
2021/07/27 07:03:39;;;;;;;;;;;;;;;25.70;44.08;100947.39;1804340;77;20164;-57
2021/07/27 07:06:05;;;;;;;;;;;;;;;25.72;44.10;100945.05;1833628;76;20177;-57
2021/07/27 07:08:31;;;;;;;;;;;;;;;25.75;44.12;100947.16;1833016;76;20235;-56
2021/07/27 07:10:57;;;;;;;;;;;;;;;25.78;44.14;100942.85;1831758;76;21111;-59
2021/07/27 07:13:24;;;;;;;;;;;;;;;25.80;44.15;100948.91;1840096;76;20127;-56
2021/07/27 07:15:50;;;;;;;;;;;;;;;25.81;44.17;100948.53;1836877;76;20130;-56
2021/07/27 07:18:16;;;;;;;;;;;;;;;25.84;44.18;100960.37;1843235;76;20150;-56
2021/07/27 07:20:42;;;;;;;;;;;;;;;25.86;44.21;100963.63;1839974;76;20211;-56
2021/07/27 07:23:08;;;;;;;;;;;;;;;25.88;44.22;100961.90;1830704;76;21183;-56
2021/07/27 07:25:39;;;;;;;;;;;;;;;25.89;44.22;100960.14;1838932;76;20184;-56
2021/07/27 07:28:01;;;;;;;;;;;;;;;25.91;44.26;100962.59;1843046;76;20183;-56
2021/07/27 07:30:27;;;;;;;;;;;;;;;25.93;44.27;100960.24;1839401;76;20203;-56
2021/07/27 07:32:53;;;;;;;;;;;;;;;25.93;44.26;100953.28;1841503;76;20176;-57
2021/07/27 07:35:23;;;;;;;;;;;;;;;25.95;44.30;100957.94;1838659;76;21146;-57
2021/07/27 07:37:47;;;;;;;;;;;;;;;25.97;44.31;100959.77;1833612;77;20142;-57
2021/07/27 07:40:14;;;;;;;;;;;;;;;25.99;44.34;100956.06;1836623;76;20144;-57
2021/07/27 07:42:40;;;;;;;;;;;;;;;26.00;44.35;100959.09;1839885;76;20432;-57
2021/07/27 07:45:07;;;;;;;;;;;;;;;26.01;44.36;100952.36;1842722;76;20509;-56
2021/07/27 07:47:33;;;;;;;;;;;;;;;26.03;44.35;100958.38;1839562;76;21797;-56
2021/07/27 07:50:00;;;;;;;;;;;;;;;26.04;44.39;100955.83;1835632;76;20245;-57
2021/07/27 07:52:26;;;;;;;;;;;;;;;26.05;44.39;100960.83;1843555;76;20467;-53
2021/07/27 07:54:52;;;;;;;;;;;;;;;26.06;44.43;100952.09;1834364;76;20473;-58
2021/07/27 07:57:19;;;;;;;;;;;;;;;26.07;44.44;100954.31;1838020;76;20199;-55
2021/07/27 07:59:45;;;;;;;;;;;;;;;26.08;44.45;100952.57;1835431;76;21180;-58
2021/07/27 08:02:11;;;;;;;;;;;;;;;26.09;44.46;100947.23;1837269;76;20263;-57
2021/07/27 08:04:37;;;;;;;;;;;;;;;26.11;44.49;100953.26;1821661;77;20204;-56
2021/07/27 08:07:05;;;;;;;;;;;;;;;26.11;44.49;100951.86;1799049;78;20212;-57
2021/07/27 08:09:31;;;;;;;;;;;;;;;26.13;44.52;100952.91;1798452;78;20215;-57
2021/07/27 08:11:57;;;;;;;;;;;;;;;26.13;44.52;100952.91;1798357;78;21152;-57
2021/07/27 08:14:24;;;;;;;;;;;;;;;26.14;44.53;100960.91;1813680;78;20624;-57
2021/07/27 08:16:52;;;;;;;;;;;;;;;26.15;44.53;100958.94;1794220;78;21335;-56
2021/07/27 08:19:19;;;;;;;;;;;;;;;26.17;44.57;100958.83;1791347;78;20224;-56
2021/07/27 08:21:45;;;;;;;;;;;;;;;26.18;44.57;100965.23;1790722;78;20517;-57
2021/07/27 08:24:11;;;;;;;;;;;;;;;26.18;44.59;100966.02;1793477;78;21924;-56
2021/07/27 08:26:37;;;;;;;;;;;;;;;26.20;44.59;100961.52;1801916;78;20133;-56
2021/07/27 08:29:03;;;;;;;;;;;;;;;26.19;44.54;100962.06;1796003;77;20182;-56
2021/07/27 08:31:29;;;;;;;;;;;;;;;26.19;44.51;100955.67;1795426;78;20157;-57
2021/07/27 08:33:56;;;;;;;;;;;;;;;26.19;44.52;100957.88;1800423;78;20145;-56
2021/07/27 08:36:21;;;;;;;;;;;;;;;26.20;44.55;100954.55;1795884;78;20976;-57
2021/07/27 08:38:47;;;;;;;;;;;;;;;26.22;44.56;100960.59;1795807;78;20798;-57
2021/07/27 08:41:13;;;;;;;;;;;;;;;26.22;44.58;100953.62;1792386;78;20170;-58
2021/07/27 08:43:40;;;;;;;;;;;;;;;26.23;44.62;100960.81;1752465;78;20169;-57
2021/07/27 08:46:06;;;;;;;;;;;;;;;26.24;44.63;100961.86;1795266;78;20177;-56
2021/07/27 08:48:32;;;;;;;;;;;;;;;26.24;44.63;100961.86;1797780;78;21095;-57
2021/07/27 08:50:58;;;;;;;;;;;;;;;26.26;44.67;100960.94;1801819;78;20726;-56
2021/07/27 08:53:24;;;;;;;;;;;;;;;26.27;44.67;100965.33;1797933;78;20153;-56
2021/07/27 08:55:50;;;;;;;;;;;;;;;26.29;44.68;100962.20;1804645;78;20152;-57
2021/07/27 08:58:17;;;;;;;;;;;;;;;26.28;44.70;100964.17;1798866;78;20173;-57
2021/07/27 09:00:43;;;;;;;;;;;;;;;26.30;44.71;100964.64;1806037;78;21019;-56
2021/07/27 09:03:09;;;;;;;;;;;;;;;26.30;44.71;100967.44;1798874;78;20275;-58
2021/07/27 09:05:36;;;;;;;;;;;;;;;26.30;44.72;100961.86;1832282;76;20123;-57
2021/07/27 09:08:07;;;;;;;;;;;;;;;26.32;44.72;100948.93;1837628;76;20115;-57
2021/07/27 09:10:33;;;;;;;;;;;;;;;26.32;44.74;100946.14;1762430;80;20128;-57
2021/07/27 09:13:01;;;;;;;;;;;;;;;26.33;44.75;100944.41;1834312;76;21689;-58
2021/07/27 09:15:29;;;;;;;;;;;;;;;26.34;44.75;100953.59;1833263;76;20429;-57
2021/07/27 09:17:58;;;;;;;;;;;;;;;26.35;44.79;100951.04;1839356;76;20107;-57
2021/07/27 09:20:29;;;;;;;;;;;;;;;26.35;44.80;100942.67;1827723;76;20119;-57
2021/07/27 09:22:55;;;;;;;;;;;;;;;26.37;44.81;100940.33;1837063;78;20116;-57
2021/07/27 09:25:26;;;;;;;;;;;;;;;26.36;44.82;100939.50;1833901;76;21006;-56
2021/07/27 09:28:07;;;;;;;;;;;;;;;26.38;44.84;100939.74;1761132;80;20132;-57
2021/07/27 09:30:33;;;;;;;;;;;;;;;26.38;44.75;100939.74;1836505;76;20191;-57
2021/07/27 09:32:59;;;;;;;;;;;;;;;26.34;44.65;100941.03;1833463;76;20246;-57
2021/07/27 09:35:27;;;;;;;;;;;;;;;26.31;44.58;100938.94;1830337;77;20433;-57
2021/07/27 09:38:11;;;;;;;;;;;;;;;26.25;44.53;100935.60;1762612;80;21031;-57
2021/07/27 09:40:52;;;;;;;;;;;;;;;26.21;44.45;100928.29;1822081;76;20171;-56
2021/07/27 09:43:19;;;;;;;;;;;;;;;26.15;44.35;100925.47;1830796;76;20432;-57
2021/07/27 09:45:48;;;;;;;;;;;;;;;26.12;44.41;100927.00;1828381;76;20132;-56
2021/07/27 09:48:18;;;;;;;;;;;;;;;26.08;44.42;100924.69;1829916;76;20149;-57
2021/07/27 09:50:46;;;;;;;;;;;;;;;26.05;44.42;100925.98;1835855;76;21213;-57
2021/07/27 09:53:13;;;;;;;;;;;;;;;26.03;44.40;100926.90;1836439;76;20233;-57
2021/07/27 09:55:39;;;;;;;;;;;;;;;26.00;44.38;100925.64;1828667;76;20174;-56
2021/07/27 09:58:04;;;;;;;;;;;;;;;25.97;44.37;100917.17;1837667;76;20152;-56
2021/07/27 10:00:30;;;;;;;;;;;;;;;25.95;44.38;100918.91;1827598;76;20179;-57
2021/07/27 10:02:56;;;;;;;;;;;;;;;25.94;44.38;100915.88;1837286;76;21249;-57
2021/07/27 10:05:24;;;;;;;;;;;;;;;25.92;44.38;100916.83;1841008;76;20525;-56
2021/07/27 10:07:59;;;;;;;;;;;;;;;25.93;44.40;100914.86;1839442;76;20125;-56
2021/07/27 10:10:39;;;;;;;;;;;;;;;25.96;44.43;100915.54;1832056;76;20830;-56
2021/07/27 10:13:09;;;;;;;;;;;;;;;25.99;44.45;100914.83;1841037;76;20466;-56
2021/07/27 10:15:40;;;;;;;;;;;;;;;26.02;44.46;100912.14;1837953;76;21072;-57
2021/07/27 10:18:06;;;;;;;;;;;;;;;26.06;44.46;100912.25;1833888;76;20144;-56
2021/07/27 10:20:32;;;;;;;;;;;;;;;26.08;44.48;100916.91;1766096;80;21695;-57
2021/07/27 10:22:57;;;;;;;;;;;;;;;26.12;44.49;100917.82;1761968;81;20169;-56
2021/07/27 10:25:25;;;;;;;;;;;;;;;26.14;44.48;100911.33;1837074;76;20701;-56
2021/07/27 10:27:55;;;;;;;;;;;;;;;26.18;44.52;100910.23;1833602;76;21151;-56
2021/07/27 10:30:35;;;;;;;;;;;;;;;26.20;44.54;100912.13;1765850;80;20191;-57
2021/07/27 10:33:02;;;;;;;;;;;;;;;26.23;44.53;100915.60;1830988;76;20124;-56
2021/07/27 10:35:32;;;;;;;;;;;;;;;26.26;44.50;100912.13;1829633;76;20252;-57
2021/07/27 10:38:11;;;;;;;;;;;;;;;26.28;44.51;100911.75;1828649;76;20151;-57
2021/07/27 10:40:38;;;;;;;;;;;;;;;26.30;44.52;100911.66;1835131;76;23214;-57
2021/07/27 10:43:05;;;;;;;;;;;;;;;26.33;44.52;100916.52;1831297;76;20111;-57
2021/07/27 10:45:31;;;;;;;;;;;;;;;26.35;44.55;100913.38;1833551;76;20140;-57
2021/07/27 10:47:57;;;;;;;;;;;;;;;26.36;44.56;100908.01;1829353;76;20158;-57
2021/07/27 10:50:27;;;;;;;;;;;;;;;26.40;44.57;100903.92;1827109;76;20155;-57
2021/07/27 10:53:04;;;;;;;;;;;;;;;26.41;44.59;100905.55;1763921;80;21348;-57
2021/07/27 10:55:36;;;;;;;;;;;;;;;26.44;44.59;100910.44;1762572;80;20149;-57
2021/07/27 10:58:02;;;;;;;;;;;;;;;26.45;44.61;100907.28;1794237;78;20177;-57
2021/07/27 11:00:30;;;;;;;;;;;;;;;26.47;44.62;100902.75;1763876;80;20140;-57
2021/07/27 11:02:56;;;;;;;;;;;;;;;26.50;44.61;100903.42;1823291;76;20361;-57
2021/07/27 11:05:26;;;;;;;;;;;;;;;26.49;44.63;100902.61;1830369;76;21120;-57
2021/07/27 11:07:52;;;;;;;;;;;;;;;26.52;44.66;100898.31;1825966;76;20125;-57
2021/07/27 11:10:23;;;;;;;;;;;;;;;26.53;44.66;100885.38;1826906;76;20258;-55
2021/07/27 11:12:49;;;;;;;;;;;;;;;26.56;44.66;100889.45;1834364;76;20180;-57
2021/07/27 11:15:23;;;;;;;;;;;;;;;26.56;44.69;100883.88;1838072;76;20163;-57
2021/07/27 11:17:51;;;;;;;;;;;;;;;26.58;44.70;100878.73;1835248;76;21954;-57
2021/07/27 11:20:23;;;;;;;;;;;;;;;26.61;44.72;100873.83;1831217;76;20112;-56
2021/07/27 11:22:50;;;;;;;;;;;;;;;26.62;44.72;100876.85;1836560;76;20392;-57
2021/07/27 11:25:17;;;;;;;;;;;;;;;26.63;44.73;100872.32;1833205;76;20162;-57
2021/07/27 11:27:43;;;;;;;;;;;;;;;26.65;44.73;100869.97;1834764;76;20456;-57
2021/07/27 11:30:12;;;;;;;;;;;;;;;26.67;44.76;100869.62;1841457;76;21120;-57
2021/07/27 11:32:39;;;;;;;;;;;;;;;26.68;44.79;100867.06;1833961;76;20214;-56
2021/07/27 11:35:06;;;;;;;;;;;;;;;26.68;44.81;100866.48;1834489;78;20401;-57
2021/07/27 11:37:32;;;;;;;;;;;;;;;26.70;44.81;100868.31;1766475;80;20393;-57
2021/07/27 11:39:58;;;;;;;;;;;;;;;26.72;44.81;100870.76;1832029;76;20389;-57
2021/07/27 11:42:30;;;;;;;;;;;;;;;26.73;44.85;100866.81;1836883;76;21156;-57
2021/07/27 11:44:57;;;;;;;;;;;;;;;26.75;44.85;100865.84;1834031;76;20172;-57
2021/07/27 11:47:24;;;;;;;;;;;;;;;26.76;44.87;100859.11;1840472;76;20377;-57
2021/07/27 11:49:55;;;;;;;;;;;;;;;26.78;44.90;100856.75;1840129;76;21926;-55
2021/07/27 11:52:28;;;;;;;;;;;;;;;26.80;44.89;100858.61;1840029;76;20163;-57
2021/07/27 11:55:04;;;;;;;;;;;;;;;26.81;44.90;100858.84;1836245;76;21251;-57
2021/07/27 11:57:30;;;;;;;;;;;;;;;26.82;44.93;100858.47;1794571;78;20465;-57
2021/07/27 12:00:13;;;;;;;;;;;;;;;26.83;44.94;100855.09;1829699;76;20174;-57
2021/07/27 12:02:39;;;;;;;;;;;;;;;26.85;44.93;100845.82;1804291;77;20379;-57
2021/07/27 12:05:06;;;;;;;;;;;;;;;26.87;44.97;100837.88;1834531;76;20165;-57
2021/07/27 12:07:32;;;;;;;;;;;;;;;26.88;44.97;100840.91;1843508;76;21269;-57
2021/07/27 12:09:58;;;;;;;;;;;;;;;26.90;45.00;100839.16;1844096;76;20194;-57
2021/07/27 12:12:24;;;;;;;;;;;;;;;26.90;45.01;100838.58;1842543;76;20140;-57
2021/07/27 12:14:50;;;;;;;;;;;;;;;26.92;45.02;100836.80;1839352;76;20124;-57
2021/07/27 12:17:16;;;;;;;;;;;;;;;26.93;45.02;100835.64;1836635;76;20133;-57
2021/07/27 12:19:42;;;;;;;;;;;;;;;26.94;45.05;100835.30;1839667;76;21061;-56
2021/07/27 12:22:08;;;;;;;;;;;;;;;26.96;45.04;100834.33;1838651;76;20148;-57
2021/07/27 12:24:34;;;;;;;;;;;;;;;26.97;45.06;100828.98;1836662;77;20261;-57
2021/07/27 12:27:00;;;;;;;;;;;;;;;26.99;45.08;100828.62;1835956;76;20165;-57
2021/07/27 12:29:26;;;;;;;;;;;;;;;26.99;45.10;100829.41;1835882;76;20203;-56
2021/07/27 12:31:52;;;;;;;;;;;;;;;27.00;45.11;100825.45;1839476;76;21057;-57
2021/07/27 12:34:18;;;;;;;;;;;;;;;27.03;45.11;100821.16;1839864;76;20500;-56
2021/07/27 12:36:44;;;;;;;;;;;;;;;27.03;45.13;100818.36;1844601;76;20143;-56
2021/07/27 12:39:10;;;;;;;;;;;;;;;27.06;45.13;100823.21;1836580;76;20399;-57
2021/07/27 12:41:36;;;;;;;;;;;;;;;27.06;45.14;100824.03;1836762;76;20286;-57
2021/07/27 12:44:03;;;;;;;;;;;;;;;27.08;45.16;100818.06;1840696;76;21346;-57
2021/07/27 12:46:31;;;;;;;;;;;;;;;27.09;45.18;100814.10;1840405;76;20118;-56
2021/07/27 12:48:59;;;;;;;;;;;;;;;27.10;45.18;100817.13;1804313;77;20161;-56
2021/07/27 12:51:25;;;;;;;;;;;;;;;27.12;45.20;100815.58;1841311;76;20153;-57
2021/07/27 12:53:51;;;;;;;;;;;;;;;27.13;45.20;100812.20;1836554;76;20186;-57
2021/07/27 12:56:17;;;;;;;;;;;;;;;27.15;45.21;100807.08;1836923;76;21023;-57
2021/07/27 12:58:43;;;;;;;;;;;;;;;27.16;45.20;100802.51;1837409;76;20205;-56
2021/07/27 13:01:09;;;;;;;;;;;;;;;27.18;45.22;100802.97;1841514;76;20390;-56
2021/07/27 13:03:36;;;;;;;;;;;;;;;27.19;45.23;100806.00;1839873;76;20159;-57